x

Buoy B01 - Western Maine Shelf (44030) Wave Buoy

9:04pm - Sat 22nd Jul 2017 All times are EDT. -4 hours from GMT.

  • Sig Wave height 1.0ft
  • Peak Period 3s
  • Wind
    11mph, 13mph gusts
  • Sea Temp 70°f
  • 空気 Temp 71°f
  • Sea Pressure 1007.9mb
  • Buoy B01 - Western Maine Shelf
  • Buoy B01 - Western Maine Shelf

More Historic Weather Station data

Upgrade to MSW Pro to gain access to the past 30 days of data for over 8000 Wavebouys and Weather Stations around the globe.

Join Pro

Comparision Forecast

View Surf forecast
   
Sat 07/22 9:04pm 1ft 3s 11 13 mph 1007.9mb 70f 71f
8:04pm 1ft 3s 13 13 mph 1007.9mb 70f 71f
7:04pm 1.3ft 3s 13 16 mph 1007.8mb 70f 71f
6:04pm 1.3ft 3s 13 16 mph 1008.2mb 70f 72f
5:04pm 1.6ft 3s 13 16 mph 1008.4mb 70f 73f
4:04pm 1ft 2s 16 18 mph 1008.8mb 70f 72f
3:04pm 1ft 6s 11 13 mph 1009.3mb 70f 73f
2:04pm 1.3ft 11s 11 11 mph 1009.7mb 70f 72f
1:04pm 1ft 6s 9 9 mph 1010.1mb 70f 71f
12:04pm 1.3ft 6s 7 9 mph 1010.2mb 70f 71f
11:04am 1.3ft 6s 7 7 mph 1010.4mb 70f 71f
10:04am 1ft 6s 7 9 mph 1010.6mb 70f 71f
9:04am 1.3ft 11s 9 9 mph 1010.6mb 69f 70f
8:04am 1.3ft 11s 7 7 mph 1010.5mb 69f 71f
7:04am 1.3ft 11s 7 9 mph 1010.3mb 69f 70f
6:04am 1.3ft 8s 11 11 mph 1009.7mb 69f 70f
5:04am 1.3ft 11s 7 9 mph 1009.8mb 69f 69f
4:04am 1.6ft 11s 9 11 mph 1009.3mb 69f 71f
3:04am 1.3ft 6s 9 9 mph 1009.1mb 69f 71f
2:04am 1.6ft 6s 7 7 mph 1008.8mb 69f 71f
1:04am 1.3ft 6s 9 11 mph 1008.6mb 69f 72f
12:04am 1.3ft 6s 9 11 mph 1008.1mb 69f 73f
Fri 07/21 11:04pm 1.3ft 6s 9 9 mph 1007.9mb 69f 72f
10:04pm 1.6ft 6s 7 7 mph 1008.1mb 71f 73f
9:04pm 1.3ft 6s 4 7 mph 1008mb 70f 76f
8:04pm 1.6ft 6s 7 9 mph 1007.7mb 71f 72f
7:04pm 1.6ft 8s 11 13 mph 1007.4mb 70f 72f
6:04pm 1.6ft 6s 11 16 mph 1007.2mb 70f 73f
5:04pm 1.3ft 2s 13 16 mph 1007.5mb 70f 73f
4:04pm 0.7ft  -  16 18 mph 1007.7mb 71f 73f
3:04pm  -   -  11 11 mph 1008.3mb 71f 73f
2:04pm 1ft 6s 9 9 mph 1009mb 72f 73f
1:04pm 1ft 6s 9 9 mph 1009.6mb 71f 73f
12:04pm 1.3ft 8s 7 9 mph 1009.7mb 71f 73f
11:04am 1ft 6s 4 4 mph 1010.1mb 71f 73f
10:04am 1.3ft 8s 7 7 mph 1010.4mb 70f 73f
9:04am 0.7ft  -  2 4 mph 1010mb 70f 70f
8:04am 1ft 6s 7 9 mph 1009.9mb 69f 69f
7:04am 0.7ft  -  9 9 mph 1009.9mb 69f 69f
6:04am 1ft 6s 9 11 mph 1009.7mb 69f 70f
5:04am 1ft 6s 7 9 mph 1009.5mb 69f 69f
4:04am 0.3ft  -  9 9 mph 1009.1mb 69f 69f
3:04am 0.3ft  -  7 7 mph 1008.9mb 69f 69f
2:04am 1.6ft 11s 4 4 mph 1008.9mb 69f 69f
1:04am 1ft 5s 7 9 mph 1009.2mb 69f 69f
12:04am 1.3ft 6s 9 11 mph 1009.1mb 70f 70f
Thu 07/20 11:04pm 1.3ft 6s 9 11 mph 1009.3mb 70f 70f
10:04pm 1.3ft 8s 4 4 mph 1009.4mb 70f 71f
9:04pm 1.3ft 6s 4 7 mph 1009.9mb 70f 70f
8:04pm 1.3ft 6s 9 9 mph 1009.7mb 70f 71f
7:04pm 1.3ft 6s 9 11 mph 1009.7mb 70f 71f
6:04pm 1.3ft 6s 11 13 mph 1009.6mb 70f 72f
5:04pm 1ft 5s 18 25 mph 1010.3mb 71f 73f
4:04pm 1.6ft 6s 11 13 mph 1010.4mb 71f 73f
3:04pm 1.3ft 5s 13 13 mph 1010.5mb 70f 73f
2:04pm 1.3ft 5s 11 13 mph 1011.2mb 71f 74f
1:04pm 1.6ft 5s 11 13 mph 1011.9mb 72f 74f
12:04pm 1.6ft 6s 7 7 mph 1012.7mb 71f 73f
11:04am 1.6ft 6s 4 7 mph 1013mb 70f 75f
10:04am 1.6ft 5s 4 7 mph 1012.8mb 70f 74f
9:04am 1.6ft 5s 7 9 mph 1013.1mb 70f 72f
8:04am 1.6ft 6s 7 7 mph 1013.3mb 69f 71f
7:04am 1.6ft 8s 9 11 mph 1013.3mb 69f 71f
6:04am 1.6ft 6s 7 9 mph 1013mb 69f 70f
5:04am 1.6ft 6s 7 9 mph 1013mb 69f 70f
4:04am 1.6ft 8s 7 7 mph 1012.8mb 69f 71f
3:04am 2ft 11s 4 4 mph 1013mb 69f 71f
2:04am 1ft 5s 4 7 mph 1013.4mb 69f 71f
1:04am 1.6ft 8s 4 4 mph 1013.3mb 70f 71f
12:04am 1.6ft 6s 2 4 mph 1013.5mb 70f 70f
Wed 07/19 11:04pm 1.6ft 6s 2 4 mph 1013.3mb 70f 71f
10:04pm 1.6ft 8s 2 2 mph 1013.4mb 70f 70f
9:04pm 1.3ft 6s 2 4 mph 1013mb 70f 70f
8:04pm 1.6ft 8s 2 4 mph 1012.4mb 70f 70f
7:04pm 2ft 6s 4 4 mph 1012.3mb 69f 71f
6:04pm 0.7ft  -  2 2 mph 1012.4mb 69f 72f
5:04pm 1.6ft 6s 2 4 mph 1012.7mb 69f 71f
3:04pm 2ft 16s 7 9 mph 1013.7mb 68f 68f
2:04pm 1ft 5s 7 9 mph 1014.5mb 68f 66f
1:04pm 1.6ft 8s 9 11 mph 1015.2mb 68f 65f
12:04pm 1.3ft 6s 9 9 mph 1015.8mb 68f 65f
11:04am 1.6ft 6s 7 7 mph 1016.1mb 67f 66f
10:04am 1.3ft 5s 4 7 mph 1016.4mb 67f 66f
9:04am 2ft 8s 2 4 mph 1016.6mb 67f 66f
8:04am 1.6ft 6s 2 2 mph 1016.8mb 67f 67f
7:04am 2.5ft 6s 4 4 mph 1016.6mb 67f 67f
6:04am 2ft 6s 2 2 mph 1016.5mb 67f 66f
5:04am 2ft 6s 2 2 mph 1016.6mb 67f 67f
4:04am 2ft 6s 2 4 mph 1016.7mb 67f 67f
3:04am 2ft 8s 7 9 mph 1016.6mb 67f 67f